Time;durP1;ratioP1;P1;durP2;ratioP2;P2;SDS_P1;SDS_P2;PMS_P1;PMS_P2;Temp;Humidity;BMP_temperature;BMP_pressure;BME280_temperature;BME280_humidity;BME280_pressure;Samples;Min_cycle;Max_cycle;Signal;HPM_P1;HPM_P2
2020/12/09 00:00:19;;;;;;;76.40;38.13;;;;;;;;;;723682;190;919469;-71
2020/12/09 00:02:45;;;;;;;88.43;40.23;;;;;;;;;;733301;189;919017;-71
2020/12/09 00:05:11;;;;;;;69.40;38.07;;;;;;;;;;727990;189;919054;-71
2020/12/09 00:07:37;;;;;;;81.75;34.97;;;;;;;;;;728675;190;916469;-71
2020/12/09 00:10:03;;;;;;;64.87;35.20;;;;;;;;;;731375;189;918771;-70
2020/12/09 00:12:31;;;;;;;65.87;38.97;;;;;;;;;;725422;189;1249660;-71
2020/12/09 00:14:55;;;;;;;95.93;43.63;;;;;;;;;;729377;190;919144;-71
2020/12/09 00:17:21;;;;;;;78.03;39.97;;;;;;;;;;725470;189;915677;-71
2020/12/09 00:19:47;;;;;;;80.00;41.40;;;;;;;;;;731909;190;915597;-71
2020/12/09 00:22:13;;;;;;;90.07;44.93;;;;;;;;;;725615;189;918930;-71
2020/12/09 00:24:38;;;;;;;114.43;52.90;;;;;;;;;;728591;189;919098;-71
2020/12/09 00:27:04;;;;;;;125.33;53.07;;;;;;;;;;727759;190;919026;-71
2020/12/09 00:29:30;;;;;;;136.33;56.57;;;;;;;;;;726527;190;917693;-71
2020/12/09 00:31:56;;;;;;;127.30;58.70;;;;;;;;;;722897;189;1203959;-70
2020/12/09 00:34:22;;;;;;;120.87;56.33;;;;;;;;;;730461;190;919068;-71
2020/12/09 00:36:48;;;;;;;125.30;59.00;;;;;;;;;;725812;190;919279;-71
2020/12/09 00:39:13;;;;;;;108.47;54.13;;;;;;;;;;728081;190;918808;-71
2020/12/09 00:41:40;;;;;;;115.10;57.17;;;;;;;;;;728855;190;919995;-71
2020/12/09 00:44:06;;;;;;;115.13;53.43;;;;;;;;;;720691;192;918634;-71
2020/12/09 00:46:32;;;;;;;117.10;52.07;;;;;;;;;;722103;190;915749;-71
2020/12/09 00:48:58;;;;;;;117.97;57.50;;;;;;;;;;732048;188;918386;-69
2020/12/09 00:51:24;;;;;;;112.27;55.83;;;;;;;;;;735900;188;918713;-70
2020/12/09 00:53:49;;;;;;;124.17;52.50;;;;;;;;;;725158;190;918995;-70
2020/12/09 00:56:15;;;;;;;117.13;52.87;;;;;;;;;;727732;190;918382;-71
2020/12/09 00:58:41;;;;;;;97.63;44.03;;;;;;;;;;729762;190;918739;-71
2020/12/09 01:01:07;;;;;;;100.57;46.70;;;;;;;;;;729963;190;918930;-70
2020/12/09 01:03:33;;;;;;;100.43;48.10;;;;;;;;;;726236;190;921251;-71
2020/12/09 01:05:59;;;;;;;106.50;45.33;;;;;;;;;;731437;190;918901;-71
2020/12/09 01:08:25;;;;;;;105.17;48.30;;;;;;;;;;725964;189;1057714;-70
2020/12/09 01:10:50;;;;;;;106.87;47.80;;;;;;;;;;720978;190;918117;-71
2020/12/09 01:13:16;;;;;;;103.23;46.77;;;;;;;;;;724816;190;918975;-71
2020/12/09 01:15:42;;;;;;;99.53;47.83;;;;;;;;;;725492;192;1021793;-71
2020/12/09 01:18:08;;;;;;;90.00;42.90;;;;;;;;;;724891;190;1366187;-71
2020/12/09 01:20:34;;;;;;;92.73;42.60;;;;;;;;;;725588;190;918995;-70
2020/12/09 01:23:00;;;;;;;95.90;44.83;;;;;;;;;;728723;190;918767;-70
2020/12/09 01:25:26;;;;;;;84.97;40.27;;;;;;;;;;729141;190;919126;-70
2020/12/09 01:27:53;;;;;;;79.57;37.28;;;;;;;;;;728644;190;918984;-73
2020/12/09 01:30:17;;;;;;;95.33;41.97;;;;;;;;;;728598;190;900679;-71
2020/12/09 01:32:43;;;;;;;83.10;41.60;;;;;;;;;;729525;190;915380;-71
2020/12/09 01:35:09;;;;;;;94.68;42.53;;;;;;;;;;727103;190;917017;-70
2020/12/09 01:37:35;;;;;;;99.10;40.47;;;;;;;;;;729262;190;915386;-71
2020/12/09 01:40:01;;;;;;;85.20;42.83;;;;;;;;;;723371;189;1339753;-72
2020/12/09 01:42:26;;;;;;;87.93;39.20;;;;;;;;;;728960;190;918699;-70
2020/12/09 01:44:52;;;;;;;71.05;36.20;;;;;;;;;;724032;190;918586;-71
2020/12/09 01:47:18;;;;;;;83.40;39.67;;;;;;;;;;732060;190;918839;-70
2020/12/09 01:49:44;;;;;;;80.63;38.27;;;;;;;;;;725737;190;918909;-71
2020/12/09 01:52:10;;;;;;;76.63;39.40;;;;;;;;;;728353;190;918872;-71
2020/12/09 01:54:36;;;;;;;85.30;38.90;;;;;;;;;;728796;189;918128;-71
2020/12/09 01:57:01;;;;;;;70.97;37.20;;;;;;;;;;723330;191;919079;-71
2020/12/09 01:59:27;;;;;;;86.87;37.57;;;;;;;;;;716229;189;2921605;-70
2020/12/09 02:01:53;;;;;;;80.83;38.30;;;;;;;;;;731399;189;919191;-71
2020/12/09 02:04:19;;;;;;;92.73;36.50;;;;;;;;;;730732;189;919817;-71
2020/12/09 02:06:45;;;;;;;94.27;41.83;;;;;;;;;;728792;189;919199;-70
2020/12/09 02:09:11;;;;;;;99.07;40.78;;;;;;;;;;727552;190;919140;-70
2020/12/09 02:11:37;;;;;;;136.20;45.03;;;;;;;;;;719758;192;918314;-70
2020/12/09 02:14:03;;;;;;;266.93;53.30;;;;;;;;;;725183;189;919260;-71
2020/12/09 02:16:29;;;;;;;197.48;47.72;;;;;;;;;;724458;190;918901;-71
2020/12/09 02:18:55;;;;;;;202.10;47.70;;;;;;;;;;729788;190;1225737;-71
2020/12/09 02:21:21;;;;;;;275.90;53.77;;;;;;;;;;725437;189;920049;-71
2020/12/09 02:23:47;;;;;;;178.30;42.37;;;;;;;;;;724507;190;944232;-70
2020/12/09 02:26:12;;;;;;;228.80;46.67;;;;;;;;;;728406;189;912350;-70
2020/12/09 02:28:38;;;;;;;179.77;44.83;;;;;;;;;;727417;190;915005;-71
2020/12/09 02:31:04;;;;;;;135.87;31.60;;;;;;;;;;724834;189;915307;-71
2020/12/09 02:33:30;;;;;;;169.95;39.92;;;;;;;;;;731179;190;918574;-71
2020/12/09 02:35:57;;;;;;;133.03;45.00;;;;;;;;;;725411;189;919085;-70
2020/12/09 02:38:22;;;;;;;200.33;35.00;;;;;;;;;;727118;190;919239;-72
2020/12/09 02:40:47;;;;;;;158.17;41.17;;;;;;;;;;724713;191;933298;-70
2020/12/09 02:43:13;;;;;;;176.37;41.47;;;;;;;;;;722173;192;918765;-72
2020/12/09 02:45:39;;;;;;;158.33;37.23;;;;;;;;;;728845;189;919000;-73
2020/12/09 02:48:05;;;;;;;185.57;43.70;;;;;;;;;;725107;189;919091;-72
2020/12/09 02:50:31;;;;;;;117.93;36.07;;;;;;;;;;734287;190;921220;-72
2020/12/09 02:52:57;;;;;;;136.57;31.83;;;;;;;;;;720749;190;919016;-74
2020/12/09 02:55:23;;;;;;;100.93;33.33;;;;;;;;;;725117;190;918255;-73
2020/12/09 02:57:49;;;;;;;61.90;24.17;;;;;;;;;;728218;189;991419;-72
2020/12/09 03:00:15;;;;;;;85.03;31.57;;;;;;;;;;728216;189;919907;-73
2020/12/09 03:02:40;;;;;;;114.87;33.00;;;;;;;;;;724441;189;918483;-71
2020/12/09 03:05:08;;;;;;;146.02;36.85;;;;;;;;;;728327;189;918452;-72
2020/12/09 03:07:33;;;;;;;126.25;45.00;;;;;;;;;;718359;193;1314303;-70
2020/12/09 03:09:58;;;;;;;112.07;40.00;;;;;;;;;;728303;189;919771;-71
2020/12/09 03:12:24;;;;;;;121.10;40.83;;;;;;;;;;726228;189;918740;-72
2020/12/09 03:14:50;;;;;;;98.65;33.38;;;;;;;;;;732793;190;916921;-71
2020/12/09 03:17:17;;;;;;;161.23;43.30;;;;;;;;;;726243;190;1019518;-71
2020/12/09 03:19:43;;;;;;;125.73;40.73;;;;;;;;;;722846;190;917442;-72
2020/12/09 03:22:11;;;;;;;154.63;43.10;;;;;;;;;;730510;190;1018341;-71
2020/12/09 03:24:35;;;;;;;119.40;35.63;;;;;;;;;;727873;189;919103;-71
2020/12/09 03:27:01;;;;;;;141.82;38.53;;;;;;;;;;730739;189;920929;-70
2020/12/09 03:29:27;;;;;;;102.13;35.30;;;;;;;;;;727503;190;1281964;-72
2020/12/09 03:31:52;;;;;;;117.27;41.23;;;;;;;;;;728065;190;919941;-71
2020/12/09 03:34:18;;;;;;;116.10;37.00;;;;;;;;;;723604;189;920338;-71
2020/12/09 03:36:44;;;;;;;105.70;35.27;;;;;;;;;;725244;190;1020266;-71
2020/12/09 03:39:10;;;;;;;136.37;37.27;;;;;;;;;;729328;190;917821;-71
2020/12/09 03:41:36;;;;;;;186.83;41.63;;;;;;;;;;730865;189;917218;-71
2020/12/09 03:44:02;;;;;;;93.65;35.38;;;;;;;;;;725378;190;918679;-71
2020/12/09 03:46:28;;;;;;;110.87;38.10;;;;;;;;;;732087;189;914143;-69
2020/12/09 03:48:53;;;;;;;141.68;41.90;;;;;;;;;;726428;190;915704;-71
2020/12/09 03:51:19;;;;;;;202.10;46.97;;;;;;;;;;725231;190;917130;-71
2020/12/09 03:53:45;;;;;;;109.50;37.37;;;;;;;;;;729677;190;918253;-72
2020/12/09 03:56:11;;;;;;;200.83;46.50;;;;;;;;;;729165;190;919035;-72
2020/12/09 03:58:37;;;;;;;189.60;45.60;;;;;;;;;;729959;189;918393;-71
2020/12/09 04:01:03;;;;;;;119.63;40.50;;;;;;;;;;724698;189;918496;-71
2020/12/09 04:03:29;;;;;;;134.70;39.87;;;;;;;;;;718646;193;918790;-71
2020/12/09 04:05:55;;;;;;;181.07;45.83;;;;;;;;;;725583;189;921529;-72
2020/12/09 04:08:20;;;;;;;123.33;35.70;;;;;;;;;;726874;190;921608;-71
2020/12/09 04:10:46;;;;;;;157.87;39.77;;;;;;;;;;730488;189;911080;-71
2020/12/09 04:13:12;;;;;;;176.77;39.20;;;;;;;;;;728027;189;912832;-70
2020/12/09 04:15:38;;;;;;;149.83;31.90;;;;;;;;;;725902;190;919542;-72
2020/12/09 04:18:04;;;;;;;109.13;39.80;;;;;;;;;;731635;190;913824;-71
2020/12/09 04:20:30;;;;;;;126.10;40.97;;;;;;;;;;723614;190;922370;-72
2020/12/09 04:22:56;;;;;;;128.10;37.95;;;;;;;;;;728767;189;915141;-71
2020/12/09 04:25:21;;;;;;;124.30;34.50;;;;;;;;;;731226;189;911316;-71
2020/12/09 04:27:47;;;;;;;113.70;40.17;;;;;;;;;;728979;189;911436;-71
2020/12/09 04:30:13;;;;;;;92.57;37.97;;;;;;;;;;726502;189;911447;-72
2020/12/09 04:32:39;;;;;;;116.15;38.75;;;;;;;;;;727425;190;919036;-71
2020/12/09 04:35:05;;;;;;;126.97;36.70;;;;;;;;;;734898;189;925897;-71
2020/12/09 04:37:31;;;;;;;111.97;35.00;;;;;;;;;;725546;189;1184478;-74
2020/12/09 04:39:57;;;;;;;183.07;50.30;;;;;;;;;;727392;189;919188;-72
2020/12/09 04:42:22;;;;;;;183.37;63.47;;;;;;;;;;730673;189;914835;-73
2020/12/09 04:44:48;;;;;;;185.10;69.70;;;;;;;;;;728337;190;913384;-72
2020/12/09 04:47:17;;;;;;;127.05;49.47;;;;;;;;;;724725;189;918169;-71
2020/12/09 04:49:43;;;;;;;81.50;40.60;;;;;;;;;;731752;189;918947;-71
2020/12/09 04:52:25;;;;;;;140.70;51.28;;;;;;;;;;724900;189;927508;-71
2020/12/09 04:54:53;;;;;;;144.87;51.90;;;;;;;;;;726214;189;918864;-72
2020/12/09 04:57:34;;;;;;;131.60;44.27;;;;;;;;;;727479;189;920317;-71
2020/12/09 05:00:00;;;;;;;121.50;41.90;;;;;;;;;;712004;190;919051;-71
2020/12/09 05:02:40;;;;;;;115.23;38.23;;;;;;;;;;723641;190;918605;-71
2020/12/09 05:05:06;;;;;;;83.40;31.67;;;;;;;;;;724014;189;922054;-71
2020/12/09 05:07:32;;;;;;;133.63;41.07;;;;;;;;;;719647;192;618952;-71
2020/12/09 05:09:58;;;;;;;113.67;39.50;;;;;;;;;;731870;190;628242;-71
2020/12/09 05:12:24;;;;;;;156.13;44.00;;;;;;;;;;727454;189;629140;-72
2020/12/09 05:14:49;;;;;;;119.00;39.77;;;;;;;;;;734298;189;614521;-71
2020/12/09 05:17:15;;;;;;;106.47;37.80;;;;;;;;;;727139;189;917679;-72
2020/12/09 05:19:41;;;;;;;187.10;53.33;;;;;;;;;;728384;189;913995;-72
2020/12/09 05:22:08;;;;;;;129.63;42.83;;;;;;;;;;732137;189;917925;-69
2020/12/09 05:24:34;;;;;;;147.63;53.00;;;;;;;;;;727671;189;919292;-72
2020/12/09 05:27:00;;;;;;;245.70;63.22;;;;;;;;;;728226;189;918820;-70
2020/12/09 05:29:26;;;;;;;170.77;53.67;;;;;;;;;;723482;189;926792;-70
2020/12/09 05:31:51;;;;;;;138.87;47.30;;;;;;;;;;719949;193;918761;-71
2020/12/09 05:34:33;;;;;;;168.37;51.17;;;;;;;;;;726672;189;908662;-70
2020/12/09 05:36:59;;;;;;;166.93;56.80;;;;;;;;;;729136;189;918241;-72
2020/12/09 05:39:25;;;;;;;187.67;56.70;;;;;;;;;;725089;189;927579;-71
2020/12/09 05:41:50;;;;;;;178.17;65.93;;;;;;;;;;733384;189;918914;-72
2020/12/09 05:44:16;;;;;;;172.87;58.80;;;;;;;;;;708970;189;3328433;-69
2020/12/09 05:46:48;;;;;;;229.07;65.37;;;;;;;;;;727055;189;918117;-71
2020/12/09 05:49:14;;;;;;;204.97;55.00;;;;;;;;;;729669;189;918098;-71
2020/12/09 05:51:40;;;;;;;191.23;60.40;;;;;;;;;;727700;189;918991;-72
2020/12/09 05:54:05;;;;;;;205.48;53.28;;;;;;;;;;726134;189;918296;-71
2020/12/09 05:56:31;;;;;;;182.03;63.43;;;;;;;;;;725141;189;947780;-69
2020/12/09 05:58:57;;;;;;;223.47;69.37;;;;;;;;;;729599;190;1014346;-71
2020/12/09 06:01:23;;;;;;;260.03;71.63;;;;;;;;;;727437;189;921989;-70
2020/12/09 06:03:49;;;;;;;171.15;58.95;;;;;;;;;;721827;189;1516467;-71
2020/12/09 06:06:20;;;;;;;200.67;70.80;;;;;;;;;;732080;189;912761;-71
2020/12/09 06:08:48;;;;;;;176.40;58.67;;;;;;;;;;727783;190;910625;-71
2020/12/09 06:11:14;;;;;;;194.40;58.13;;;;;;;;;;725141;190;918541;-70
2020/12/09 06:13:40;;;;;;;136.13;43.43;;;;;;;;;;726045;189;921537;-71
2020/12/09 06:16:06;;;;;;;150.97;48.60;;;;;;;;;;730394;189;919051;-71
2020/12/09 06:18:32;;;;;;;170.30;63.53;;;;;;;;;;726686;189;918518;-69
2020/12/09 06:20:58;;;;;;;142.83;49.90;;;;;;;;;;724662;189;913399;-71
2020/12/09 06:23:27;;;;;;;193.93;52.00;;;;;;;;;;732501;189;915420;-70
2020/12/09 06:25:49;;;;;;;152.83;48.20;;;;;;;;;;726359;189;915781;-71
2020/12/09 06:28:15;;;;;;;170.37;48.13;;;;;;;;;;726743;189;916639;-70
2020/12/09 06:30:41;;;;;;;150.37;47.40;;;;;;;;;;728892;189;916329;-72
2020/12/09 06:33:07;;;;;;;151.53;49.87;;;;;;;;;;728233;189;913349;-71
2020/12/09 06:35:33;;;;;;;104.97;39.50;;;;;;;;;;724326;189;918445;-70
2020/12/09 06:38:05;;;;;;;269.17;56.40;;;;;;;;;;727529;190;918337;-69
2020/12/09 06:40:30;;;;;;;141.67;47.50;;;;;;;;;;715702;192;1006565;-72
2020/12/09 06:42:56;;;;;;;150.53;45.80;;;;;;;;;;726865;190;919263;-71
2020/12/09 06:45:23;;;;;;;71.27;26.03;;;;;;;;;;725562;189;924663;-72
2020/12/09 06:47:49;;;;;;;138.63;39.87;;;;;;;;;;731682;190;918686;-72
2020/12/09 06:50:15;;;;;;;133.93;31.97;;;;;;;;;;726561;190;919471;-72
2020/12/09 06:52:41;;;;;;;186.93;52.60;;;;;;;;;;722950;189;1258355;-72
2020/12/09 06:55:07;;;;;;;154.48;48.95;;;;;;;;;;732101;189;917933;-72
2020/12/09 06:57:34;;;;;;;163.13;45.97;;;;;;;;;;722626;191;918569;-74
2020/12/09 07:00:05;;;;;;;139.93;42.60;;;;;;;;;;730834;189;915939;-71
2020/12/09 07:02:31;;;;;;;166.97;47.67;;;;;;;;;;725025;189;915869;-71
2020/12/09 07:04:57;;;;;;;202.60;54.40;;;;;;;;;;732750;190;914945;-71
2020/12/09 07:07:26;;;;;;;175.07;50.97;;;;;;;;;;726141;189;918883;-72
2020/12/09 07:09:52;;;;;;;167.13;51.37;;;;;;;;;;728291;190;921101;-71
2020/12/09 07:12:19;;;;;;;180.20;57.40;;;;;;;;;;715460;189;2635627;-71
2020/12/09 07:14:47;;;;;;;192.83;55.40;;;;;;;;;;732950;189;944963;-72
2020/12/09 07:17:12;;;;;;;177.43;54.37;;;;;;;;;;723884;189;918628;-72
2020/12/09 07:19:38;;;;;;;185.20;52.42;;;;;;;;;;728764;189;931608;-72
2020/12/09 07:22:04;;;;;;;178.10;58.53;;;;;;;;;;726986;190;1021068;-71
2020/12/09 07:24:30;;;;;;;220.65;63.87;;;;;;;;;;726726;189;929654;-72
2020/12/09 07:27:01;;;;;;;374.87;123.70;;;;;;;;;;721843;190;919011;-71
2020/12/09 07:29:28;;;;;;;225.73;66.00;;;;;;;;;;726709;190;918942;-72
2020/12/09 07:32:00;;;;;;;206.87;66.43;;;;;;;;;;733056;190;919069;-72
2020/12/09 07:34:19;;;;;;;305.50;95.47;;;;;;;;;;724330;189;1374871;-72
2020/12/09 07:36:49;;;;;;;235.20;63.63;;;;;;;;;;725538;190;918665;-72
2020/12/09 07:39:12;;;;;;;216.30;65.40;;;;;;;;;;727189;190;918314;-72
2020/12/09 07:41:43;;;;;;;205.23;71.33;;;;;;;;;;724841;190;918300;-71
2020/12/09 07:44:09;;;;;;;227.90;83.67;;;;;;;;;;724468;190;918630;-72
2020/12/09 07:46:34;;;;;;;251.47;85.93;;;;;;;;;;725563;190;1035322;-70
2020/12/09 07:49:00;;;;;;;207.33;60.77;;;;;;;;;;728830;190;919069;-72
2020/12/09 07:51:28;;;;;;;224.90;65.77;;;;;;;;;;725402;190;919643;-71
2020/12/09 07:53:54;;;;;;;182.63;49.77;;;;;;;;;;724593;189;914533;-72
2020/12/09 07:56:20;;;;;;;150.53;45.30;;;;;;;;;;731680;190;916917;-72
2020/12/09 07:58:46;;;;;;;92.57;34.63;;;;;;;;;;729416;188;918618;-71
2020/12/09 08:01:11;;;;;;;139.55;44.25;;;;;;;;;;721530;190;915953;-73
2020/12/09 08:03:37;;;;;;;208.20;64.00;;;;;;;;;;728221;190;919667;-73
2020/12/09 08:06:03;;;;;;;131.45;40.90;;;;;;;;;;728970;190;918240;-73
2020/12/09 08:08:29;;;;;;;163.37;57.40;;;;;;;;;;728714;190;918984;-73
2020/12/09 08:10:55;;;;;;;185.98;55.90;;;;;;;;;;725704;189;918926;-74
2020/12/09 08:13:21;;;;;;;136.83;38.07;;;;;;;;;;724231;192;918134;-74
2020/12/09 08:15:47;;;;;;;182.50;53.93;;;;;;;;;;723099;190;919306;-72
2020/12/09 08:18:22;;;;;;;129.87;43.27;;;;;;;;;;726926;190;918922;-74
2020/12/09 08:20:48;;;;;;;101.85;31.92;;;;;;;;;;724471;189;1011290;-72
2020/12/09 08:23:14;;;;;;;165.13;52.67;;;;;;;;;;721249;192;918616;-73
2020/12/09 08:25:44;;;;;;;187.23;54.33;;;;;;;;;;725698;189;924034;-73
2020/12/09 08:28:09;;;;;;;93.43;37.50;;;;;;;;;;728164;189;918907;-73
2020/12/09 08:30:35;;;;;;;148.17;49.67;;;;;;;;;;730991;189;919942;-73
2020/12/09 08:33:01;;;;;;;159.23;46.63;;;;;;;;;;728538;189;918945;-73
2020/12/09 08:35:27;;;;;;;123.73;41.20;;;;;;;;;;726117;189;918947;-72
2020/12/09 08:37:54;;;;;;;189.83;55.67;;;;;;;;;;733467;190;918878;-74
2020/12/09 08:40:19;;;;;;;175.77;49.97;;;;;;;;;;722201;189;1676748;-72
2020/12/09 08:42:51;;;;;;;106.00;32.83;;;;;;;;;;729074;190;919244;-71
2020/12/09 08:45:16;;;;;;;115.85;36.70;;;;;;;;;;717394;190;918292;-72
2020/12/09 08:47:42;;;;;;;180.83;52.30;;;;;;;;;;734282;189;919009;-74
2020/12/09 08:50:08;;;;;;;195.95;55.22;;;;;;;;;;727006;189;919049;-73
2020/12/09 08:52:34;;;;;;;240.93;58.70;;;;;;;;;;723350;189;918929;-73
2020/12/09 08:55:01;;;;;;;175.77;53.93;;;;;;;;;;734245;189;918857;-71
2020/12/09 08:57:26;;;;;;;162.47;54.00;;;;;;;;;;726381;190;919154;-73
2020/12/09 08:59:52;;;;;;;168.77;44.87;;;;;;;;;;727163;190;918827;-73
2020/12/09 09:02:18;;;;;;;169.70;47.67;;;;;;;;;;724889;190;918411;-73
2020/12/09 09:04:44;;;;;;;167.23;47.13;;;;;;;;;;721810;193;918677;-73
2020/12/09 09:07:09;;;;;;;204.70;48.30;;;;;;;;;;725698;189;918733;-73
2020/12/09 09:09:35;;;;;;;178.43;50.57;;;;;;;;;;728506;189;921344;-73
2020/12/09 09:12:01;;;;;;;162.50;51.97;;;;;;;;;;731890;189;918333;-74
2020/12/09 09:14:28;;;;;;;177.10;54.77;;;;;;;;;;728373;189;918912;-71
2020/12/09 09:16:53;;;;;;;190.23;50.83;;;;;;;;;;724952;190;939768;-71
2020/12/09 09:19:19;;;;;;;163.63;46.90;;;;;;;;;;733951;189;918473;-70
2020/12/09 09:21:45;;;;;;;123.03;37.95;;;;;;;;;;725638;190;919144;-70
2020/12/09 09:24:11;;;;;;;152.17;45.20;;;;;;;;;;728205;190;919139;-70
2020/12/09 09:26:37;;;;;;;82.45;27.42;;;;;;;;;;730711;190;919449;-68
2020/12/09 09:29:03;;;;;;;115.93;40.03;;;;;;;;;;723898;189;1363218;-69
2020/12/09 09:31:29;;;;;;;188.90;54.10;;;;;;;;;;728491;189;956279;-68
2020/12/09 09:33:55;;;;;;;214.70;58.57;;;;;;;;;;726723;189;919308;-67
2020/12/09 09:36:20;;;;;;;185.53;49.90;;;;;;;;;;732173;190;918197;-68
2020/12/09 09:38:46;;;;;;;135.60;41.27;;;;;;;;;;724833;190;921475;-69
2020/12/09 09:41:12;;;;;;;154.97;45.23;;;;;;;;;;727268;190;916254;-68
2020/12/09 09:43:38;;;;;;;180.27;49.90;;;;;;;;;;730294;190;915660;-67
2020/12/09 09:46:04;;;;;;;202.60;65.30;;;;;;;;;;726226;190;919011;-69
2020/12/09 09:48:30;;;;;;;254.20;70.53;;;;;;;;;;719870;189;1656897;-68
2020/12/09 09:50:56;;;;;;;200.05;54.38;;;;;;;;;;728636;190;919202;-68
2020/12/09 09:53:21;;;;;;;216.77;60.33;;;;;;;;;;724078;190;916874;-67
2020/12/09 09:55:47;;;;;;;220.20;55.65;;;;;;;;;;727059;190;920177;-69
2020/12/09 09:58:14;;;;;;;241.55;70.45;;;;;;;;;;730034;190;917521;-68
2020/12/09 10:00:40;;;;;;;218.97;61.47;;;;;;;;;;723782;192;918348;-69
2020/12/09 10:03:06;;;;;;;247.67;68.17;;;;;;;;;;724830;189;919915;-68
2020/12/09 10:05:31;;;;;;;171.27;52.30;;;;;;;;;;719549;192;945547;-67
2020/12/09 10:07:57;;;;;;;200.17;52.43;;;;;;;;;;735381;190;921409;-69
2020/12/09 10:10:23;;;;;;;158.03;46.80;;;;;;;;;;726131;190;918407;-68
2020/12/09 10:12:49;;;;;;;257.53;80.60;;;;;;;;;;726517;190;955027;-68
2020/12/09 10:15:15;;;;;;;235.53;78.63;;;;;;;;;;730921;190;913963;-66
2020/12/09 10:17:41;;;;;;;314.93;93.07;;;;;;;;;;725091;190;917406;-67
2020/12/09 10:20:06;;;;;;;207.85;55.95;;;;;;;;;;726639;189;917198;-68
2020/12/09 10:22:32;;;;;;;182.77;53.93;;;;;;;;;;733580;189;916357;-67
2020/12/09 10:24:58;;;;;;;174.57;50.77;;;;;;;;;;726308;188;912392;-67
2020/12/09 10:27:24;;;;;;;220.67;61.70;;;;;;;;;;730585;190;915642;-67
2020/12/09 10:29:50;;;;;;;178.73;49.10;;;;;;;;;;724387;189;919447;-66
2020/12/09 10:32:16;;;;;;;219.90;59.10;;;;;;;;;;735128;190;918146;-66
2020/12/09 10:34:42;;;;;;;190.03;53.13;;;;;;;;;;724526;189;921838;-67
2020/12/09 10:37:07;;;;;;;172.43;52.10;;;;;;;;;;725787;190;919510;-66
2020/12/09 10:39:33;;;;;;;120.20;39.23;;;;;;;;;;730858;190;918053;-67
2020/12/09 10:41:59;;;;;;;163.00;46.77;;;;;;;;;;727403;190;918943;-67
2020/12/09 10:44:25;;;;;;;199.60;60.13;;;;;;;;;;728481;189;919040;-68
2020/12/09 10:46:51;;;;;;;201.80;55.87;;;;;;;;;;729717;190;934967;-66
2020/12/09 10:49:17;;;;;;;171.80;57.33;;;;;;;;;;728576;190;918439;-67
2020/12/09 10:51:46;;;;;;;121.35;43.97;;;;;;;;;;725918;189;918831;-67
2020/12/09 10:54:12;;;;;;;201.43;65.20;;;;;;;;;;725217;191;918591;-69
2020/12/09 10:56:38;;;;;;;155.30;44.77;;;;;;;;;;727661;189;1128380;-67
2020/12/09 10:59:04;;;;;;;196.77;48.90;;;;;;;;;;727960;190;918729;-67
2020/12/09 11:01:32;;;;;;;191.97;58.17;;;;;;;;;;723763;190;918828;-66
2020/12/09 11:03:56;;;;;;;166.20;48.30;;;;;;;;;;732236;190;918932;-67
2020/12/09 11:06:27;;;;;;;147.50;49.70;;;;;;;;;;726102;190;918228;-67
2020/12/09 11:08:53;;;;;;;232.17;63.33;;;;;;;;;;728206;190;919186;-68
2020/12/09 11:11:19;;;;;;;118.20;38.57;;;;;;;;;;726284;190;918618;-66
2020/12/09 11:13:45;;;;;;;221.67;64.27;;;;;;;;;;723881;193;918892;-66
2020/12/09 11:16:13;;;;;;;144.73;45.07;;;;;;;;;;725308;189;1065454;-66
2020/12/09 11:18:39;;;;;;;146.37;42.33;;;;;;;;;;727975;190;919836;-66
2020/12/09 11:21:06;;;;;;;177.00;50.27;;;;;;;;;;730328;190;918053;-72
2020/12/09 11:23:32;;;;;;;179.17;46.33;;;;;;;;;;730277;189;924096;-67
2020/12/09 11:25:57;;;;;;;222.95;62.03;;;;;;;;;;729303;190;918742;-67
2020/12/09 11:28:23;;;;;;;142.90;39.93;;;;;;;;;;725217;190;918952;-67
2020/12/09 11:30:49;;;;;;;229.77;55.33;;;;;;;;;;727967;189;918560;-68
2020/12/09 11:33:15;;;;;;;88.87;30.73;;;;;;;;;;727302;188;917663;-67
2020/12/09 11:35:41;;;;;;;186.73;54.63;;;;;;;;;;730119;189;919267;-67
2020/12/09 11:38:07;;;;;;;182.40;46.17;;;;;;;;;;724859;189;2456870;-67
2020/12/09 11:40:33;;;;;;;98.17;35.80;;;;;;;;;;726290;189;919291;-67
2020/12/09 11:42:59;;;;;;;150.03;42.00;;;;;;;;;;726037;190;917976;-66
2020/12/09 11:45:24;;;;;;;166.43;52.13;;;;;;;;;;735333;189;919046;-68
2020/12/09 11:47:50;;;;;;;108.57;35.07;;;;;;;;;;727397;189;919175;-67
2020/12/09 11:50:16;;;;;;;228.95;57.47;;;;;;;;;;728279;189;918489;-66
2020/12/09 11:52:42;;;;;;;121.50;40.70;;;;;;;;;;728137;190;919055;-68
2020/12/09 11:55:08;;;;;;;158.60;42.67;;;;;;;;;;729941;189;916281;-67
2020/12/09 11:57:34;;;;;;;192.10;54.70;;;;;;;;;;728719;189;916083;-67
2020/12/09 12:00:00;;;;;;;232.02;61.72;;;;;;;;;;727970;190;915466;-66
2020/12/09 12:02:26;;;;;;;164.30;52.60;;;;;;;;;;722767;192;919344;-67
2020/12/09 12:04:55;;;;;;;172.10;48.00;;;;;;;;;;723962;189;982212;-67
2020/12/09 12:07:17;;;;;;;140.43;44.00;;;;;;;;;;728293;189;915072;-67
2020/12/09 12:09:43;;;;;;;147.73;46.53;;;;;;;;;;730163;189;901380;-66
2020/12/09 12:12:10;;;;;;;212.33;60.80;;;;;;;;;;729285;189;915347;-66
2020/12/09 12:14:36;;;;;;;83.30;28.70;;;;;;;;;;727657;189;919888;-66
2020/12/09 12:17:07;;;;;;;217.27;55.80;;;;;;;;;;730679;189;914511;-66
2020/12/09 12:19:28;;;;;;;159.60;40.60;;;;;;;;;;726265;189;919216;-66
2020/12/09 12:21:53;;;;;;;137.13;41.57;;;;;;;;;;730142;189;916927;-65
2020/12/09 12:24:19;;;;;;;203.10;52.00;;;;;;;;;;732566;189;760860;-64
2020/12/09 12:26:45;;;;;;;135.53;42.60;;;;;;;;;;728109;189;912840;-66
2020/12/09 12:29:11;;;;;;;219.43;67.55;;;;;;;;;;724029;190;916403;-66
2020/12/09 12:31:37;;;;;;;215.53;59.70;;;;;;;;;;727899;190;919131;-66
2020/12/09 12:34:03;;;;;;;154.13;43.93;;;;;;;;;;731742;190;918962;-65
2020/12/09 12:36:29;;;;;;;199.17;53.40;;;;;;;;;;725920;189;919222;-67
2020/12/09 12:38:55;;;;;;;160.40;47.97;;;;;;;;;;726138;190;909766;-66
2020/12/09 12:41:20;;;;;;;154.12;43.20;;;;;;;;;;728398;190;919109;-66
2020/12/09 12:43:46;;;;;;;170.10;53.67;;;;;;;;;;728192;190;932277;-66
2020/12/09 12:46:12;;;;;;;229.87;60.60;;;;;;;;;;725617;189;1705875;-66
2020/12/09 12:48:38;;;;;;;193.60;55.63;;;;;;;;;;734431;189;918859;-67
2020/12/09 12:51:04;;;;;;;131.63;43.77;;;;;;;;;;726383;190;919492;-66
2020/12/09 12:53:30;;;;;;;157.50;50.13;;;;;;;;;;720975;190;920496;-66
2020/12/09 12:55:56;;;;;;;173.70;47.33;;;;;;;;;;723122;190;919132;-65
2020/12/09 12:58:21;;;;;;;223.77;59.50;;;;;;;;;;722294;192;920269;-66
2020/12/09 13:00:47;;;;;;;142.83;46.83;;;;;;;;;;726658;189;919785;-64
2020/12/09 13:03:13;;;;;;;255.98;74.32;;;;;;;;;;722873;189;918046;-66
2020/12/09 13:05:39;;;;;;;239.27;73.23;;;;;;;;;;731947;189;920369;-66
2020/12/09 13:08:05;;;;;;;191.32;55.58;;;;;;;;;;724815;190;915689;-66
2020/12/09 13:10:31;;;;;;;255.97;80.47;;;;;;;;;;723638;189;916891;-64
2020/12/09 13:12:57;;;;;;;247.67;69.97;;;;;;;;;;734735;189;914874;-66
2020/12/09 13:15:23;;;;;;;219.37;60.47;;;;;;;;;;726591;190;919088;-66
2020/12/09 13:17:49;;;;;;;150.03;47.20;;;;;;;;;;729082;189;918621;-66
2020/12/09 13:20:15;;;;;;;222.60;57.60;;;;;;;;;;734383;189;937165;-67
2020/12/09 13:22:41;;;;;;;154.47;45.33;;;;;;;;;;725635;189;919904;-65
2020/12/09 13:25:06;;;;;;;173.73;60.07;;;;;;;;;;727884;190;919818;-65
2020/12/09 13:27:32;;;;;;;222.17;55.80;;;;;;;;;;722988;190;920925;-66
2020/12/09 13:29:58;;;;;;;188.77;58.43;;;;;;;;;;732127;189;919393;-66
2020/12/09 13:32:24;;;;;;;175.57;50.50;;;;;;;;;;726173;189;960620;-65
2020/12/09 13:34:50;;;;;;;184.57;55.12;;;;;;;;;;725548;190;920711;-64
2020/12/09 13:37:16;;;;;;;226.63;63.00;;;;;;;;;;729359;189;1023602;-66
2020/12/09 13:39:42;;;;;;;156.93;47.43;;;;;;;;;;728594;189;918845;-64
2020/12/09 13:42:07;;;;;;;245.27;67.53;;;;;;;;;;717974;190;2006926;-65
2020/12/09 13:44:33;;;;;;;126.37;42.40;;;;;;;;;;732496;189;919237;-66
2020/12/09 13:46:59;;;;;;;149.73;44.92;;;;;;;;;;726578;189;919587;-66